createdAt,value
2018-06-09T00:01:11.126Z,18.60
2018-06-09T00:03:40.162Z,18.60
2018-06-09T00:06:09.155Z,18.60
2018-06-09T00:08:38.135Z,18.60
2018-06-09T00:11:07.223Z,18.70
2018-06-09T00:13:36.208Z,18.60
2018-06-09T00:18:33.889Z,18.60
2018-06-09T00:21:02.845Z,18.60
2018-06-09T00:23:31.869Z,18.60
2018-06-09T00:26:00.864Z,18.60
2018-06-09T00:28:29.837Z,18.60
2018-06-09T00:30:58.837Z,18.60
2018-06-09T00:33:27.797Z,18.60
2018-06-09T00:35:56.851Z,18.50
2018-06-09T00:38:25.816Z,18.50
2018-06-09T00:40:54.779Z,18.50
2018-06-09T00:43:23.780Z,18.50
2018-06-09T00:45:54.457Z,18.50
2018-06-09T00:48:23.551Z,18.50
2018-06-09T00:50:52.657Z,18.40
2018-06-09T00:53:21.721Z,18.40
2018-06-09T00:55:55.253Z,18.30
2018-06-09T00:58:24.245Z,18.30
2018-06-09T01:00:53.227Z,18.30
2018-06-09T01:03:22.249Z,18.20
2018-06-09T01:05:51.309Z,18.20
2018-06-09T01:08:20.305Z,18.10
2018-06-09T01:10:49.325Z,18.10
2018-06-09T01:13:18.375Z,18.10
2018-06-09T01:15:47.422Z,18.10
2018-06-09T01:18:16.467Z,18.00
2018-06-09T01:20:45.489Z,18.00
2018-06-09T01:23:14.584Z,17.90
2018-06-09T01:25:43.624Z,17.90
2018-06-09T01:28:12.629Z,17.80
2018-06-09T01:30:41.772Z,17.80
2018-06-09T01:33:10.803Z,17.80
2018-06-09T01:35:39.853Z,17.80
2018-06-09T01:38:08.882Z,17.80
2018-06-09T01:40:37.862Z,17.80
2018-06-09T01:43:06.938Z,17.80
2018-06-09T01:45:35.939Z,17.80
2018-06-09T01:48:05.143Z,17.70
2018-06-09T01:50:34.225Z,17.70
2018-06-09T01:53:03.285Z,17.70
2018-06-09T01:55:32.322Z,17.60
2018-06-09T01:58:01.495Z,17.60
2018-06-09T02:00:30.474Z,17.60
2018-06-09T02:02:59.606Z,17.60
2018-06-09T02:05:28.626Z,17.60
2018-06-09T02:07:57.629Z,17.60
2018-06-09T02:10:26.807Z,17.60
2018-06-09T02:12:55.842Z,17.50
2018-06-09T02:15:24.904Z,17.50
2018-06-09T02:17:53.958Z,17.50
2018-06-09T02:20:23.652Z,17.50
2018-06-09T02:22:52.655Z,17.50
2018-06-09T02:25:21.687Z,17.50
2018-06-09T02:27:50.735Z,17.50
2018-06-09T02:30:19.727Z,17.40
2018-06-09T02:32:48.728Z,17.40
2018-06-09T02:35:17.732Z,17.40
2018-06-09T02:37:46.742Z,17.40
2018-06-09T02:40:15.746Z,17.40
2018-06-09T02:42:44.791Z,17.40
2018-06-09T02:45:14.183Z,17.50
2018-06-09T02:47:43.205Z,17.50
2018-06-09T02:50:12.312Z,17.50
2018-06-09T02:52:41.319Z,17.50
2018-06-09T02:55:10.403Z,17.60
2018-06-09T02:57:39.449Z,17.60
2018-06-09T03:00:08.455Z,17.70
2018-06-09T03:02:37.427Z,17.60
2018-06-09T03:05:06.607Z,17.60
2018-06-09T03:07:35.595Z,17.70
2018-06-09T03:10:04.647Z,17.70
2018-06-09T03:12:33.636Z,17.70
2018-06-09T03:15:02.638Z,17.70
2018-06-09T03:17:31.675Z,17.80
2018-06-09T03:20:00.676Z,17.80
2018-06-09T03:22:29.686Z,17.80
2018-06-09T03:24:58.705Z,17.80
2018-06-09T03:27:27.828Z,17.90
2018-06-09T03:29:56.827Z,17.90
2018-06-09T03:32:25.860Z,17.90
2018-06-09T03:34:55.600Z,17.90
2018-06-09T03:37:24.631Z,17.90
2018-06-09T03:39:53.623Z,17.90
2018-06-09T03:42:22.623Z,18.00
2018-06-09T03:44:51.640Z,18.00
2018-06-09T03:47:20.712Z,18.00
2018-06-09T03:49:49.746Z,18.00
2018-06-09T03:52:18.757Z,18.10
2018-06-09T03:57:16.461Z,18.10
2018-06-09T03:59:45.462Z,18.10
2018-06-09T04:02:14.450Z,18.10
2018-06-09T04:04:43.499Z,18.10
2018-06-09T04:07:12.528Z,18.20
2018-06-09T04:09:41.524Z,18.20
2018-06-09T04:12:10.502Z,18.20
2018-06-09T04:14:39.585Z,18.20
2018-06-09T04:17:08.599Z,18.20
2018-06-09T04:19:37.616Z,18.20
2018-06-09T04:22:06.622Z,18.20
2018-06-09T04:24:35.617Z,18.20
2018-06-09T04:27:04.746Z,18.20
2018-06-09T04:29:33.881Z,18.30
2018-06-09T04:32:02.965Z,18.30
2018-06-09T04:34:31.943Z,18.30
2018-06-09T04:37:00.914Z,18.30
2018-06-09T04:39:29.913Z,18.30
2018-06-09T04:41:58.876Z,18.30
2018-06-09T04:44:27.858Z,18.30
2018-06-09T04:46:56.832Z,18.30
2018-06-09T04:49:25.840Z,18.40
2018-06-09T04:51:54.850Z,18.40
2018-06-09T04:54:23.906Z,18.40
2018-06-09T04:56:52.890Z,18.40
2018-06-09T04:59:21.916Z,18.40
2018-06-09T05:01:50.918Z,18.50
2018-06-09T05:04:19.935Z,18.50
2018-06-09T05:06:48.978Z,18.60
2018-06-09T05:09:17.975Z,18.60
2018-06-09T05:11:46.989Z,18.60
2018-06-09T05:14:15.978Z,18.60
2018-06-09T05:16:44.990Z,18.60
2018-06-09T05:19:14.006Z,18.60
2018-06-09T05:21:43.022Z,18.60
2018-06-09T05:24:11.984Z,18.60
2018-06-09T05:26:40.964Z,18.60
2018-06-09T05:29:09.972Z,18.60
2018-06-09T05:31:38.966Z,18.60
2018-06-09T05:34:07.973Z,18.70
2018-06-09T05:36:36.964Z,18.70
2018-06-09T05:39:07.928Z,18.60
2018-06-09T05:41:36.893Z,18.70
2018-06-09T05:44:05.885Z,18.70
2018-06-09T05:46:34.881Z,18.70
2018-06-09T05:49:04.013Z,18.60
2018-06-09T05:51:32.990Z,18.60
2018-06-09T05:54:01.946Z,18.60
2018-06-09T05:56:30.893Z,18.60
2018-06-09T05:58:59.970Z,18.60
2018-06-09T06:01:28.949Z,18.60
2018-06-09T06:06:26.698Z,18.60
2018-06-09T06:08:55.734Z,18.70
2018-06-09T06:11:24.731Z,18.70
2018-06-09T06:13:53.693Z,18.70
2018-06-09T06:16:22.657Z,18.70
2018-06-09T06:18:51.774Z,18.70
2018-06-09T06:21:20.725Z,18.70
2018-06-09T06:23:49.817Z,18.80
2018-06-09T06:26:18.815Z,18.80
2018-06-09T06:28:47.821Z,18.90
2018-06-09T06:31:16.800Z,18.90
2018-06-09T06:33:45.773Z,18.90
2018-06-09T06:36:14.761Z,19.00
2018-06-09T06:41:12.377Z,19.00
2018-06-09T06:43:41.385Z,19.10
2018-06-09T06:46:10.439Z,19.10
2018-06-09T06:48:39.441Z,19.20
2018-06-09T06:51:08.457Z,19.30
2018-06-09T06:53:37.458Z,19.30
2018-06-09T06:56:06.455Z,19.40
2018-06-09T06:58:35.437Z,19.50
2018-06-09T07:01:04.455Z,19.60
2018-06-09T07:03:33.427Z,19.70
2018-06-09T07:06:02.493Z,19.70
2018-06-09T07:11:00.199Z,19.90
2018-06-09T07:13:29.216Z,20.00
2018-06-09T07:15:58.149Z,20.00
2018-06-09T07:18:27.255Z,20.10
2018-06-09T07:20:56.269Z,20.20
2018-06-09T07:23:25.265Z,20.20
2018-06-09T07:25:54.256Z,20.30
2018-06-09T07:28:23.281Z,20.40
2018-06-09T07:30:52.301Z,20.40
2018-06-09T07:33:21.419Z,20.40
2018-06-09T07:35:50.449Z,20.40
2018-06-09T07:38:19.460Z,20.50
2018-06-09T07:40:48.495Z,20.60
2018-06-09T07:43:18.017Z,20.70
2018-06-09T07:45:47.305Z,20.80
2018-06-09T07:48:16.357Z,20.90
2018-06-09T07:50:45.423Z,21.00
2018-06-09T07:53:14.427Z,21.10
2018-06-09T07:55:43.403Z,21.20
2018-06-09T07:58:12.475Z,21.30
2018-06-09T08:00:41.434Z,21.20
2018-06-09T08:03:10.497Z,21.30
2018-06-09T08:05:39.499Z,21.40
2018-06-09T08:08:08.474Z,21.50
2018-06-09T08:10:37.446Z,21.60
2018-06-09T08:13:06.422Z,21.70
2018-06-09T08:15:35.374Z,21.80
2018-06-09T08:18:04.372Z,21.80
2018-06-09T08:20:33.412Z,21.90
2018-06-09T08:23:02.371Z,21.90
2018-06-09T08:25:31.337Z,22.00
2018-06-09T08:28:00.319Z,22.00
2018-06-09T08:30:29.490Z,21.90
2018-06-09T08:32:58.458Z,21.90
2018-06-09T08:35:27.450Z,21.90
2018-06-09T08:37:56.583Z,21.90
2018-06-09T08:40:25.617Z,22.00
2018-06-09T08:42:54.596Z,22.00
2018-06-09T08:45:23.616Z,22.00
2018-06-09T08:47:52.613Z,22.00
2018-06-09T08:52:50.352Z,22.00
2018-06-09T08:55:19.352Z,22.00
2018-06-09T08:57:48.476Z,21.90
2018-06-09T09:00:17.520Z,22.00
2018-06-09T09:02:46.505Z,22.00
2018-06-09T09:05:15.487Z,22.00
2018-06-09T09:07:44.526Z,22.10
2018-06-09T09:10:13.542Z,22.20
2018-06-09T09:12:42.517Z,22.30
2018-06-09T09:15:11.673Z,22.40
2018-06-09T09:17:40.653Z,22.40
2018-06-09T09:20:09.636Z,22.50
2018-06-09T09:25:07.258Z,22.50
2018-06-09T09:27:36.255Z,22.50
2018-06-09T09:30:05.286Z,22.40
2018-06-09T09:32:34.358Z,22.30
2018-06-09T09:35:04.034Z,22.40
2018-06-09T09:37:33.105Z,22.40
2018-06-09T09:42:30.705Z,22.50
2018-06-09T09:44:59.693Z,22.60
2018-06-09T09:47:28.717Z,22.70
2018-06-09T09:49:57.849Z,22.70
2018-06-09T09:52:26.857Z,22.80
2018-06-09T09:54:55.878Z,23.00
2018-06-09T09:57:24.870Z,23.30
2018-06-09T09:59:53.873Z,23.50
2018-06-09T10:02:22.877Z,23.80
2018-06-09T10:04:51.877Z,24.00
2018-06-09T10:07:20.856Z,24.10
2018-06-09T10:09:50.050Z,24.30
2018-06-09T10:12:19.041Z,24.40
2018-06-09T10:14:48.126Z,24.60
2018-06-09T10:17:17.133Z,24.70
2018-06-09T10:19:46.167Z,24.70
2018-06-09T10:24:43.792Z,24.80
2018-06-09T10:27:12.785Z,24.80
2018-06-09T10:29:41.793Z,24.80
2018-06-09T10:32:10.826Z,24.80
2018-06-09T10:34:39.865Z,24.90
2018-06-09T10:37:08.979Z,25.00
2018-06-09T10:39:37.979Z,25.00
2018-06-09T10:42:07.156Z,25.00
2018-06-09T10:44:36.161Z,25.00
2018-06-09T10:47:05.177Z,25.10
2018-06-09T10:49:34.193Z,25.20
2018-06-09T10:52:03.251Z,25.20
2018-06-09T10:54:32.219Z,25.20
2018-06-09T10:57:01.205Z,25.30
2018-06-09T10:59:30.235Z,25.40
2018-06-09T11:01:59.257Z,25.60
2018-06-09T11:06:56.923Z,26.00
2018-06-09T11:09:25.900Z,26.10
2018-06-09T11:11:54.916Z,26.20
2018-06-09T11:14:23.885Z,26.20
2018-06-09T11:16:52.877Z,26.20
2018-06-09T11:19:21.873Z,26.20
2018-06-09T11:21:50.960Z,26.20
2018-06-09T11:24:20.033Z,26.30
2018-06-09T11:26:49.018Z,26.40
2018-06-09T11:29:18.045Z,26.40
2018-06-09T11:31:47.034Z,26.40
2018-06-09T11:34:16.016Z,26.60
2018-06-09T11:36:45.008Z,26.60
2018-06-09T11:39:13.998Z,26.70
2018-06-09T11:41:42.991Z,26.70
2018-06-09T11:44:12.086Z,26.80
2018-06-09T11:46:41.067Z,26.90
2018-06-09T11:49:10.055Z,27.00
2018-06-09T11:51:39.053Z,27.00
2018-06-09T11:54:08.890Z,26.90
2018-06-09T11:56:37.887Z,26.90
2018-06-09T11:59:07.113Z,26.90
2018-06-09T12:01:36.332Z,26.80
2018-06-09T12:04:05.414Z,26.90
2018-06-09T12:06:34.399Z,27.00
2018-06-09T12:09:04.506Z,27.00
2018-06-09T12:11:33.543Z,27.10
2018-06-09T12:14:02.518Z,27.20
2018-06-09T12:16:31.496Z,27.30
2018-06-09T12:19:00.484Z,27.30
2018-06-09T12:21:29.546Z,27.20
2018-06-09T12:23:58.538Z,27.30
2018-06-09T12:26:27.512Z,27.30
2018-06-09T12:28:56.518Z,27.30
2018-06-09T12:31:25.579Z,27.30
2018-06-09T12:33:54.613Z,27.20
2018-06-09T12:36:23.799Z,27.30
2018-06-09T12:38:52.745Z,27.40
2018-06-09T12:41:21.771Z,27.40
2018-06-09T12:43:50.830Z,27.50
2018-06-09T12:46:19.794Z,27.60
2018-06-09T12:48:48.799Z,27.60
2018-06-09T12:53:46.530Z,27.40
2018-06-09T12:56:15.522Z,27.20
2018-06-09T12:58:44.494Z,27.10
2018-06-09T13:01:13.539Z,26.90
2018-06-09T13:03:42.598Z,26.80
2018-06-09T13:06:11.604Z,26.60
2018-06-09T13:08:40.563Z,26.50
2018-06-09T13:11:09.603Z,26.40
2018-06-09T13:13:38.674Z,26.30
2018-06-09T13:16:07.758Z,26.30
2018-06-09T13:18:36.890Z,26.40
2018-06-09T13:21:06.091Z,26.40
2018-06-09T13:23:35.117Z,26.40
2018-06-09T13:26:04.102Z,26.40
2018-06-09T13:28:33.165Z,26.50
2018-06-09T13:31:02.157Z,26.50
2018-06-09T13:33:31.153Z,26.70
2018-06-09T13:36:00.182Z,26.90
2018-06-09T13:38:29.129Z,27.00
2018-06-09T13:40:58.142Z,26.90
2018-06-09T13:43:27.187Z,27.10
2018-06-09T13:45:56.155Z,27.20
2018-06-09T13:48:25.196Z,27.30
2018-06-09T13:53:22.920Z,27.50
2018-06-09T13:55:51.924Z,27.50
2018-06-09T13:58:20.963Z,27.60
2018-06-09T14:00:49.933Z,27.70
2018-06-09T14:03:18.957Z,27.80
2018-06-09T14:05:47.965Z,27.80
2018-06-09T14:08:16.969Z,28.00
2018-06-09T14:10:45.946Z,28.10
2018-06-09T14:13:15.118Z,28.20
2018-06-09T14:15:44.167Z,28.30
2018-06-09T14:18:13.170Z,28.30
2018-06-09T14:20:42.160Z,28.00
2018-06-09T14:23:11.133Z,28.00
2018-06-09T14:25:40.231Z,27.80
2018-06-09T14:28:09.307Z,27.90
2018-06-09T14:33:06.928Z,28.00
2018-06-09T14:35:35.940Z,28.10
2018-06-09T14:38:05.082Z,28.30
2018-06-09T14:40:34.278Z,28.40
2018-06-09T14:43:03.328Z,28.40
2018-06-09T14:45:32.334Z,28.30
2018-06-09T14:48:01.296Z,28.20
2018-06-09T14:50:30.328Z,28.10
2018-06-09T14:52:59.327Z,28.10
2018-06-09T14:57:57.020Z,28.00
2018-06-09T15:00:26.088Z,28.00
2018-06-09T15:02:55.062Z,27.90
2018-06-09T15:05:24.095Z,27.90
2018-06-09T15:07:53.146Z,27.90
2018-06-09T15:10:22.114Z,27.90
2018-06-09T15:12:51.078Z,27.90
2018-06-09T15:15:20.149Z,27.90
2018-06-09T15:20:18.106Z,28.00
2018-06-09T15:22:50.162Z,28.00
2018-06-09T15:25:19.146Z,28.10
2018-06-09T15:27:48.240Z,28.20
2018-06-09T15:30:17.334Z,28.30
2018-06-09T15:32:46.322Z,28.30
2018-06-09T15:35:15.396Z,28.30
2018-06-09T15:37:44.419Z,28.30
2018-06-09T15:40:13.404Z,28.20
2018-06-09T15:42:42.402Z,28.10
2018-06-09T15:45:11.504Z,28.00
2018-06-09T15:47:40.479Z,27.80
2018-06-09T15:50:09.484Z,27.60
2018-06-09T15:52:38.483Z,27.50
2018-06-09T15:55:07.500Z,27.40
2018-06-09T15:57:36.522Z,27.30
2018-06-09T16:00:05.678Z,27.30
2018-06-09T16:02:34.675Z,27.40
2018-06-09T16:05:03.768Z,27.60
2018-06-09T16:07:32.848Z,27.70
2018-06-09T16:10:01.858Z,27.70
2018-06-09T16:12:30.834Z,27.80
2018-06-09T16:14:59.832Z,27.80
2018-06-09T16:17:28.786Z,27.80
2018-06-09T16:19:57.783Z,27.80
2018-06-09T16:22:26.753Z,27.70
2018-06-09T16:24:55.734Z,27.70
2018-06-09T16:27:24.724Z,27.70
2018-06-09T16:29:53.790Z,27.60
2018-06-09T16:32:22.735Z,27.70
2018-06-09T16:34:51.749Z,27.70
2018-06-09T16:37:20.758Z,27.70
2018-06-09T16:39:49.722Z,27.70
2018-06-09T16:42:18.718Z,27.80
2018-06-09T16:44:47.812Z,27.70
2018-06-09T16:47:16.870Z,27.80
2018-06-09T16:49:45.858Z,27.90
2018-06-09T16:52:14.828Z,28.00
2018-06-09T16:54:43.874Z,28.10
2018-06-09T16:57:12.918Z,28.00
2018-06-09T16:59:41.936Z,28.00
2018-06-09T17:02:10.925Z,28.00
2018-06-09T17:04:40.514Z,28.10
2018-06-09T17:07:09.568Z,28.20
2018-06-09T17:09:38.581Z,28.30
2018-06-09T17:12:07.621Z,28.20
2018-06-09T17:14:36.609Z,28.20
2018-06-09T17:17:05.645Z,28.30
2018-06-09T17:19:34.620Z,28.30
2018-06-09T17:22:03.596Z,28.30
2018-06-09T17:24:32.766Z,28.30
2018-06-09T17:27:01.809Z,28.30
2018-06-09T17:29:30.793Z,28.30
2018-06-09T17:31:59.881Z,28.30
2018-06-09T17:34:28.906Z,28.30
2018-06-09T17:36:57.926Z,28.30
2018-06-09T17:39:26.877Z,28.10
2018-06-09T17:41:55.883Z,28.00
2018-06-09T17:44:24.889Z,28.00
2018-06-09T17:46:54.041Z,28.00
2018-06-09T17:49:23.311Z,27.90
2018-06-09T17:51:52.403Z,28.00
2018-06-09T17:54:21.505Z,28.00
2018-06-09T17:56:50.581Z,27.90
2018-06-09T17:59:19.593Z,27.90
2018-06-09T18:01:48.644Z,27.90
2018-06-09T18:04:17.785Z,27.90
2018-06-09T18:06:46.881Z,27.90
2018-06-09T18:09:15.990Z,27.90
2018-06-09T18:11:45.077Z,27.80
2018-06-09T18:14:14.109Z,27.80
2018-06-09T18:16:43.312Z,27.80
2018-06-09T18:19:12.276Z,27.80
2018-06-09T18:21:41.249Z,27.70
2018-06-09T18:24:10.291Z,27.60
2018-06-09T18:26:39.341Z,27.50
2018-06-09T18:29:08.333Z,27.50
2018-06-09T18:31:37.300Z,27.50
2018-06-09T18:34:06.353Z,27.40
2018-06-09T18:36:35.398Z,27.30
2018-06-09T18:39:07.402Z,27.40
2018-06-09T18:41:36.801Z,27.40
2018-06-09T18:44:05.876Z,27.40
2018-06-09T18:46:34.973Z,27.30
2018-06-09T18:49:03.933Z,27.20
2018-06-09T18:51:32.909Z,27.20
2018-06-09T18:54:01.948Z,27.20
2018-06-09T18:56:30.966Z,27.20
2018-06-09T18:58:59.945Z,27.10
2018-06-09T19:01:28.929Z,27.10
2018-06-09T19:03:57.935Z,27.00
2018-06-09T19:06:26.945Z,27.00
2018-06-09T19:08:56.163Z,26.90
2018-06-09T19:11:25.179Z,26.90
2018-06-09T19:13:54.181Z,26.90
2018-06-09T19:16:23.386Z,26.80
2018-06-09T19:18:52.486Z,26.80
2018-06-09T19:21:21.683Z,26.70
2018-06-09T19:23:53.750Z,26.80
2018-06-09T19:26:23.970Z,26.60
2018-06-09T19:28:53.720Z,26.50
2018-06-09T19:31:22.878Z,26.50
2018-06-09T19:33:51.902Z,26.40
2018-06-09T19:36:21.012Z,26.20
2018-06-09T19:38:50.168Z,26.20
2018-06-09T19:41:26.021Z,26.10
2018-06-09T19:43:55.057Z,26.00
2018-06-09T19:46:24.045Z,25.90
2018-06-09T19:48:53.072Z,25.80
2018-06-09T19:51:22.212Z,25.60
2018-06-09T19:53:51.306Z,25.50
2018-06-09T19:56:20.364Z,25.40
2018-06-09T20:01:18.150Z,25.10
2018-06-09T20:03:47.159Z,25.00
2018-06-09T20:08:44.901Z,24.90
2018-06-09T20:11:13.954Z,24.80
2018-06-09T20:13:42.968Z,24.80
2018-06-09T20:16:12.016Z,24.70
2018-06-09T20:18:41.482Z,24.60
2018-06-09T20:21:10.572Z,24.60
2018-06-09T20:23:39.742Z,24.50
2018-06-09T20:26:08.779Z,24.30
2018-06-09T20:28:37.803Z,24.30
2018-06-09T20:31:06.884Z,24.20
2018-06-09T20:33:35.889Z,24.10
2018-06-09T20:36:04.905Z,24.10
2018-06-09T20:38:33.999Z,24.00
2018-06-09T20:41:03.030Z,23.90
2018-06-09T20:43:32.164Z,23.80
2018-06-09T20:46:01.379Z,23.80
2018-06-09T20:48:30.402Z,23.70
2018-06-09T20:50:59.427Z,23.70
2018-06-09T20:53:28.446Z,23.60
2018-06-09T20:55:57.504Z,23.50
2018-06-09T20:58:30.788Z,23.40
2018-06-09T21:00:59.861Z,23.40
2018-06-09T21:03:28.878Z,23.30
2018-06-09T21:05:58.019Z,23.20
2018-06-09T21:08:26.967Z,23.10
2018-06-09T21:10:56.007Z,23.00
2018-06-09T21:13:25.005Z,23.00
2018-06-09T21:15:54.023Z,23.00
2018-06-09T21:18:23.064Z,23.00
2018-06-09T21:20:52.069Z,22.90
2018-06-09T21:23:21.110Z,22.90
2018-06-09T21:25:50.149Z,22.90
2018-06-09T21:28:25.723Z,22.80
2018-06-09T21:30:59.909Z,22.80
2018-06-09T21:34:15.370Z,22.70
2018-06-09T21:36:49.689Z,22.70
2018-06-09T21:39:24.801Z,22.60
2018-06-09T21:41:59.227Z,22.60
2018-06-09T21:44:33.753Z,22.50
2018-06-09T21:47:02.841Z,22.40
2018-06-09T21:49:31.849Z,22.30
2018-06-09T21:52:00.934Z,22.30
2018-06-09T21:54:29.958Z,22.20
2018-06-09T21:56:59.007Z,22.10
2018-06-09T21:59:28.049Z,22.10
2018-06-09T22:01:57.102Z,22.10
2018-06-09T22:04:26.083Z,22.00
2018-06-09T22:06:55.202Z,22.00
2018-06-09T22:09:24.188Z,21.90
2018-06-09T22:11:53.191Z,21.90
2018-06-09T22:14:22.189Z,21.80
2018-06-09T22:19:19.956Z,21.70
2018-06-09T22:21:49.101Z,21.70
2018-06-09T22:24:18.070Z,21.70
2018-06-09T22:26:47.074Z,21.60
2018-06-09T22:29:16.086Z,21.60
2018-06-09T22:31:45.134Z,21.50
2018-06-09T22:34:14.119Z,21.50
2018-06-09T22:36:43.090Z,21.50
2018-06-09T22:39:12.100Z,21.50
2018-06-09T22:41:41.218Z,21.50
2018-06-09T22:44:10.196Z,21.40
2018-06-09T22:46:39.193Z,21.40
2018-06-09T22:49:08.199Z,21.40
2018-06-09T22:51:37.315Z,21.40
2018-06-09T22:54:06.340Z,21.30
2018-06-09T22:56:35.396Z,21.20
2018-06-09T22:59:04.463Z,21.20
2018-06-09T23:01:33.446Z,21.10
2018-06-09T23:04:02.588Z,21.00
2018-06-09T23:06:31.580Z,21.00
2018-06-09T23:09:00.557Z,21.00
2018-06-09T23:11:29.601Z,20.90
2018-06-09T23:13:58.576Z,20.90
2018-06-09T23:16:27.620Z,20.90
2018-06-09T23:18:56.598Z,20.80
2018-06-09T23:21:25.621Z,20.80
2018-06-09T23:23:54.598Z,20.70
2018-06-09T23:26:23.574Z,20.70
2018-06-09T23:28:52.551Z,20.60
2018-06-09T23:31:21.554Z,20.60
2018-06-09T23:33:50.522Z,20.60
2018-06-09T23:36:19.507Z,20.50
2018-06-09T23:38:48.530Z,20.50
2018-06-09T23:41:17.522Z,20.40
2018-06-09T23:43:46.498Z,20.30
2018-06-09T23:46:15.541Z,20.20
2018-06-09T23:48:44.531Z,20.20
2018-06-09T23:51:13.627Z,20.20
2018-06-09T23:53:42.613Z,20.10
2018-06-09T23:56:11.665Z,20.10
2018-06-09T23:58:40.597Z,20.10
